Thunder radar more information blitzortung!


Radar de pluja more information rain snow radar


Visita la nostra xarxa de llocs de meteo:

Template documentation
and downloads

And another site



No particular awareness of the weather is required.    There are no Weather-warnings

Pagina Historial Weather Underground text

Diari Resum Agost 16, 2017 Unitats:  Imperial    Mètric   Tant
« Previous Dia
SegĂźent Dia »
Diari Setmana Mensual Anual Personalitzada
  Maxima: Minima: Media:
Temperatura: 88.5 °F 69.1 °F 79 °F
Punt de rosada: 66.7 °F 58.3 °F 63 °F
Humitat: 80 % 43 % 59 %
Wind Speed: 13.8 mph 0 mph 4.5 mph
RĂ fegues de vent: 13.8 mph - -
Vent:- - East
Pression baro: 30.1 in 30 in -
Precipitacions: 0 in    
Historical Graphs
 
 
Dades de taula per Agost 16, 2017
Temps Temperatura Punt de rosada Pression baro Vent Wind Speed RĂ fegues de vent Humitat Rainfall Rate (Hourly)
00:04 74.5 °F 63.1 °F 30 in NNE 3.5 mph 3.5 mph 68 % 0 in
00:05 71.6 °F 64.4 °F 30.1 in NE 1 mph 2 mph 78 % 0 in
00:09 74.3 °F 63.1 °F 30 in NE 3.5 mph 3.5 mph 68 % 0 in
00:14 74.3 °F 63.1 °F 30.1 in South 1.2 mph   68 % 0 in
00:15 71.6 °F 64.4 °F 30.1 in NNE 1 mph 2 mph 78 % 0 in
00:19 74.1 °F 63 °F 30.1 in Calm     68 % 0 in
00:24 73.9 °F 62.8 °F 30.1 in NNE 2.3 mph 2.3 mph 68 % 0 in
00:25 71.6 °F 64.4 °F 30.1 in NNE 2 mph 3 mph 78 % 0 in
00:29 73.8 °F 62.4 °F 30.1 in NW 1.2 mph   68 % 0 in
00:34 73.6 °F 62.4 °F 30.1 in NE 1.2 mph   68 % 0 in
00:35 71.6 °F 64.4 °F 30.1 in NNE 2 mph 3 mph 78 % 0 in
00:39 73.6 °F 62.4 °F 30.1 in NE 1.2 mph   68 % 0 in
00:44 73.4 °F 62.6 °F 30.1 in NNE 2.4 mph 2.4 mph 69 % 0 in
00:45 71.6 °F 64.4 °F 30.1 in NE 2 mph 3 mph 78 % 0 in
00:49 73.4 °F 62.6 °F 30.1 in NNE 2.6 mph 2.6 mph 69 % 0 in
00:54 73.4 °F 62.6 °F 30.1 in ENE 2.9 mph 2.9 mph 69 % 0 in
00:55 71.6 °F 64.8 °F 30.1 in NNE 3 mph 3 mph 79 % 0 in
00:59 73.2 °F 62.4 °F 30.1 in ENE 3.5 mph 3.5 mph 69 % 0 in
01:04 73 °F 62.2 °F 30.1 in NE 2.6 mph 2.6 mph 69 % 0 in
01:05 71.6 °F 64.8 °F 30.1 in NE 2 mph 3 mph 79 % 0 in
01:09 72.9 °F 62.1 °F 30.1 in Calm     69 % 0 in
01:14 72.7 °F 62.2 °F 30.1 in Calm     70 % 0 in
01:15 71.6 °F 64.8 °F 30.1 in NE 2 mph 3 mph 79 % 0 in
01:19 72.3 °F 62.4 °F 30.1 in NNE 1.2 mph 1.2 mph 71 % 0 in
01:24 72.3 °F 62.4 °F 30.1 in NNW 1.2 mph 1.2 mph 71 % 0 in
01:25 71.4 °F 64.6 °F 30.1 in NNE 1 mph 3 mph 79 % 0 in
01:29 72.1 °F 62.2 °F 30.1 in NNW 1.2 mph   71 % 0 in
01:35 71.1 °F 64.2 °F 30.1 in NNE 2 mph 2 mph 79 % 0 in
01:45 70.9 °F 64 °F 30.1 in NNE 1 mph 2 mph 79 % 0 in
01:55 70.7 °F 63.9 °F 30.1 in NNE 1 mph 3 mph 79 % 0 in
02:05 70.3 °F 63.5 °F 30.1 in NNE 1 mph 3 mph 79 % 0 in
02:15 70.2 °F 63.3 °F 30.1 in NE 1 mph 2 mph 79 % 0 in
02:25 69.8 °F 63 °F 30.1 in NE 1 mph 3 mph 79 % 0 in
02:35 69.6 °F 63.1 °F 30.1 in NNE 1 mph 2 mph 80 % 0 in
02:50 69.3 °F 62.8 °F 30.1 in NNE 1 mph 3 mph 80 % 0 in
03:00 69.1 °F 62.2 °F 30.1 in North 1 mph 2 mph 79 % 0 in
03:10 69.1 °F 62.6 °F 30.1 in Calm   2 mph 80 % 0 in
03:20 69.1 °F 62.2 °F 30.1 in North 2 mph 3 mph 79 % 0 in
03:30 69.1 °F 62.2 °F 30.1 in NE 1 mph 2 mph 79 % 0 in
03:40 69.1 °F 62.6 °F 30.1 in NNE 1 mph 3 mph 80 % 0 in
03:50 69.3 °F 62.8 °F 30 in NNE 1 mph 3 mph 80 % 0 in
04:00 69.8 °F 62.6 °F 30.1 in NNE 1 mph 1 mph 78 % 0 in
04:10 70.2 °F 63 °F 30.1 in NE 2 mph 2 mph 78 % 0 in
04:20 70.7 °F 63.1 °F 30 in NE 3 mph 3 mph 77 % 0 in
04:30 71.6 °F 64 °F 30 in NE 3 mph 3 mph 77 % 0 in
04:40 71.8 °F 63.9 °F 30 in NE 3 mph 4 mph 76 % 0 in
04:50 72 °F 64 °F 30.1 in NE 3 mph 4 mph 76 % 0 in
05:00 72.9 °F 64.6 °F 30.1 in NE 2 mph 3 mph 75 % 0 in
05:10 73.8 °F 64.6 °F 30.1 in NE 3 mph 4 mph 73 % 0 in
05:20 74.1 °F 64.9 °F 30.1 in NNE 1 mph 3 mph 73 % 0 in
05:30 74.7 °F 64.9 °F 30.1 in NE 2 mph 3 mph 72 % 0 in
05:40 74.8 °F 64.8 °F 30.1 in NNE 1 mph 4 mph 71 % 0 in
05:50 74.8 °F 64.8 °F 30.1 in NE 3 mph 4 mph 71 % 0 in
06:00 76.8 °F 65.8 °F 30.1 in NNE 2 mph 4 mph 69 % 0 in
11:06 77.5 °F 64.8 °F 30.1 in NE 1.2 mph 1.4 mph 65 % 0 in
11:07 77.5 °F 64.8 °F 30.1 in NNE 3.5 mph 3.5 mph 65 % 0 in
11:12 77.7 °F 64.6 °F 30.1 in ENE 4.6 mph 4.6 mph 64 % 0 in
11:17 77.7 °F 64.6 °F 30.1 in ESE 1.6 mph 1.6 mph 64 % 0 in
11:22 78.1 °F 64.9 °F 30.1 in ENE 3.1 mph 3.1 mph 64 % 0 in
11:27 78.8 °F 65.7 °F 30.1 in SE 3.5 mph 3.5 mph 64 % 0 in
11:32 79.3 °F 65.7 °F 30.1 in SW 2.4 mph 2.4 mph 63 % 0 in
11:37 79.7 °F 65.5 °F 30.1 in NW 2.3 mph 2.3 mph 62 % 0 in
11:42 80.4 °F 66.2 °F 30.1 in West 1.4 mph   62 % 0 in
11:47 80.6 °F 65.5 °F 30.1 in WSW 1.2 mph   60 % 0 in
11:52 80.6 °F 65.5 °F 30.1 in NNE 1.2 mph   60 % 0 in
11:57 81 °F 65.3 °F 30.1 in WSW 2.3 mph 2.3 mph 59 % 0 in
11:58 81.3 °F 66 °F 30.1 in NE 2 mph 2 mph 60 % 0 in
12:03 80.8 °F 65.1 °F 30.1 in NE 4.6 mph 4.6 mph 59 % 0 in
12:08 80.8 °F 64.6 °F 30.1 in South 2.3 mph 2.3 mph 58 % 0 in
12:13 81.9 °F 66 °F 30 in North 2.3 mph 2.3 mph 59 % 0 in
12:18 81.3 °F 65.1 °F 30 in ENE 4.6 mph 4.6 mph 58 % 0 in
12:23 80.8 °F 64.6 °F 30 in ENE 3.5 mph 3.5 mph 58 % 0 in
12:28 81.3 °F 65.1 °F 30.1 in WSW 2.4 mph 2.4 mph 58 % 0 in
12:33 81.9 °F 65.7 °F 30.1 in NNE 2.3 mph 2.3 mph 58 % 0 in
12:38 82 °F 65.8 °F 30.1 in ENE 3.5 mph 3.5 mph 58 % 0 in
12:43 82 °F 65.8 °F 30.1 in East 4.6 mph 4.6 mph 58 % 0 in
12:48 82.4 °F 65.1 °F 30.1 in ESE 3.5 mph 3.5 mph 56 % 0 in
12:53 82.8 °F 65.5 °F 30.1 in South 5.8 mph 5.8 mph 56 % 0 in
12:58 82.8 °F 64.9 °F 30.1 in ENE 5.8 mph 5.8 mph 55 % 0 in
13:03 83.3 °F 65.5 °F 30.1 in ESE 4.6 mph 4.6 mph 55 % 0 in
13:08 84.6 °F 66 °F 30.1 in SSE 5.8 mph 5.8 mph 54 % 0 in
13:13 85.1 °F 66 °F 30.1 in NNE 3.5 mph 3.5 mph 53 % 0 in
13:18 84.7 °F 66.4 °F 30.1 in NE 2.3 mph 2.3 mph 54 % 0 in
13:23 85.1 °F 66 °F 30.1 in ESE 4 mph 4 mph 53 % 0 in
13:28 85.1 °F 65.5 °F 30 in SSE 4.6 mph 4.6 mph 52 % 0 in
13:33 86.4 °F 66.7 °F 30 in SE 3.5 mph 3.5 mph 52 % 0 in
13:38 85.8 °F 64.9 °F 30 in SSE 4.6 mph 4.6 mph 50 % 0 in
13:43 85.8 °F 65.7 °F 30 in SE 5.8 mph 5.8 mph 51 % 0 in
13:48 86.2 °F 65.5 °F 30 in WSW 2.3 mph 2.3 mph 50 % 0 in
13:53 87.1 °F 66.2 °F 30 in ESE 4.6 mph 4.6 mph 50 % 0 in
13:58 87.6 °F 66.7 °F 30 in ESE 5.9 mph 5.9 mph 50 % 0 in
14:03 86.2 °F 64.2 °F 30 in NNE 4.6 mph 4.6 mph 48 % 0 in
14:08 86.2 °F 64.8 °F 30 in ESE 3.5 mph 3.5 mph 49 % 0 in
14:13 86.9 °F 65.5 °F 30 in ESE 4.3 mph 4.3 mph 49 % 0 in
14:18 86.7 °F 64.8 °F 30 in NNE 8.1 mph 8.1 mph 48 % 0 in
14:23 86.7 °F 64.8 °F 30 in North 6.9 mph 6.9 mph 48 % 0 in
14:28 87.3 °F 64.6 °F 30 in East 5.4 mph 5.4 mph 47 % 0 in
14:33 87.8 °F 64.4 °F 30 in East 5.8 mph 5.8 mph 46 % 0 in
14:38 87.4 °F 64 °F 30 in ESE 9.2 mph 9.2 mph 46 % 0 in
14:43 88.2 °F 64 °F 30 in SE 5.8 mph 5.8 mph 45 % 0 in
14:48 88.2 °F 64 °F 30 in SE 6.9 mph 6.9 mph 45 % 0 in
14:53 87.6 °F 63.7 °F 30 in SE 8.5 mph 8.5 mph 45 % 0 in
14:58 87.8 °F 63.9 °F 30 in ENE 4.6 mph 4.6 mph 45 % 0 in
15:03 87.3 °F 63.3 °F 30 in NNE 3.5 mph 3.5 mph 45 % 0 in
15:08 87.8 °F 63.1 °F 30 in ESE 5.8 mph 5.8 mph 44 % 0 in
15:13 87.8 °F 63.9 °F 30 in South 4.6 mph 4.6 mph 45 % 0 in
15:18 87.8 °F 63.1 °F 30 in SSE 5.8 mph 5.8 mph 44 % 0 in
15:23 87.6 °F 63.7 °F 30 in East 8.1 mph 8.1 mph 45 % 0 in
15:28 88.2 °F 63.5 °F 30 in East 6.9 mph 6.9 mph 44 % 0 in
15:33 88 °F 62.8 °F 30 in SSE 9.2 mph 9.2 mph 43 % 0 in
15:35 88.3 °F 63 °F 30 in SSW 8.1 mph 8.1 mph 43 % 0 in
15:40 88.3 °F 63 °F 30 in East 9.2 mph 9.2 mph 43 % 0 in
15:45 88.5 °F 63.9 °F 30 in ESE 5.8 mph 5.8 mph 44 % 0 in
15:50 88.2 °F 62.8 °F 30 in SE 8.1 mph 8.1 mph 43 % 0 in
15:55 88.2 °F 62.8 °F 30 in ESE 9.2 mph 9.2 mph 43 % 0 in
16:05 88 °F 62.8 °F 30 in ENE 8.1 mph 8.1 mph 43 % 0 in
16:10 87.8 °F 63.1 °F 30 in ENE 5.8 mph 5.8 mph 44 % 0 in
16:15 87.8 °F 63.1 °F 30 in East 5.8 mph 5.8 mph 44 % 0 in
16:20 88.2 °F 63.5 °F 30 in ESE 6.9 mph 6.9 mph 44 % 0 in
16:25 87.6 °F 63 °F 30 in ESE 11.5 mph 11.5 mph 44 % 0 in
16:30 87.6 °F 63.7 °F 30 in ENE 6.9 mph 6.9 mph 45 % 0 in
16:35 87.6 °F 63.7 °F 30 in SE 9.2 mph 9.2 mph 45 % 0 in
16:40 87.4 °F 63.5 °F 30 in ESE 12.7 mph 12.7 mph 45 % 0 in
16:45 87.1 °F 63.1 °F 30 in ESE 10.9 mph 10.9 mph 45 % 0 in
16:50 87.1 °F 63.1 °F 30 in East 10.4 mph 10.4 mph 45 % 0 in
16:55 87.3 °F 63.3 °F 30 in ESE 8.1 mph 8.1 mph 45 % 0 in
17:00 86.9 °F 63 °F 30 in ENE 10.4 mph 10.4 mph 45 % 0 in
17:05 86.5 °F 62.8 °F 30 in ESE 10.4 mph 10.4 mph 45 % 0 in
17:10 86 °F 62.8 °F 30 in ESE 8.1 mph 8.1 mph 46 % 0 in
17:15 86.2 °F 63 °F 30 in East 5.8 mph 5.8 mph 46 % 0 in
17:20 86.5 °F 63.3 °F 30 in East 10.4 mph 10.4 mph 46 % 0 in
17:25 85.8 °F 62.6 °F 30 in East 11.5 mph 11.5 mph 46 % 0 in
17:30 85.5 °F 63 °F 30 in ENE 10.4 mph 10.4 mph 47 % 0 in
17:35 85.3 °F 62.8 °F 30 in ESE 10.4 mph 10.4 mph 47 % 0 in
17:40 84.9 °F 62.4 °F 30 in East 11.5 mph 11.5 mph 47 % 0 in
17:45 84.6 °F 62.8 °F 30 in ESE 9.2 mph 9.2 mph 48 % 0 in
17:50 84.6 °F 62.8 °F 30 in ESE 9.8 mph 9.8 mph 48 % 0 in
17:55 84.6 °F 62.8 °F 30 in East 10.4 mph 10.4 mph 48 % 0 in
18:00 84.2 °F 62.4 °F 30 in SE 10.4 mph 10.4 mph 48 % 0 in
18:05 84 °F 62.8 °F 30 in ESE 8.1 mph 8.1 mph 49 % 0 in
18:10 83.8 °F 62.6 °F 30 in NE 8.1 mph 8.1 mph 49 % 0 in
18:15 83.5 °F 62.2 °F 30 in ENE 11.5 mph 11.5 mph 49 % 0 in
18:20 83.3 °F 62.8 °F 30 in ESE 10.9 mph 10.9 mph 50 % 0 in
18:25 83.1 °F 62.6 °F 30 in ESE 9.7 mph 9.7 mph 50 % 0 in
18:30 82.6 °F 62.1 °F 30 in East 13.8 mph 13.8 mph 50 % 0 in
18:35 82.4 °F 61.9 °F 30 in ESE 9.2 mph 9.2 mph 50 % 0 in
18:40 82 °F 61.5 °F 30 in ESE 11.5 mph 11.5 mph 50 % 0 in
18:45 82 °F 61.5 °F 30 in SE 10 mph 10 mph 50 % 0 in
18:50 82 °F 61.5 °F 30 in ESE 8.1 mph 8.1 mph 50 % 0 in
18:55 81.5 °F 61.2 °F 30 in ESE 8.1 mph 8.1 mph 50 % 0 in
19:00 81.3 °F 61 °F 30 in ENE 9.2 mph 9.2 mph 50 % 0 in
19:05 81 °F 60.6 °F 30 in SE 6.9 mph 6.9 mph 50 % 0 in
19:10 80.8 °F 61 °F 30 in ESE 8.1 mph 8.1 mph 51 % 0 in
19:15 80.8 °F 61 °F 30 in East 6.9 mph 6.9 mph 51 % 0 in
19:20 80.1 °F 61.3 °F 30 in ESE 12.7 mph 12.7 mph 53 % 0 in
19:25 80.1 °F 61.3 °F 30 in ESE 5.8 mph 5.8 mph 53 % 0 in
19:30 79.7 °F 61.2 °F 30 in ENE 8.1 mph 8.1 mph 53 % 0 in
19:35 79.9 °F 61.2 °F 30 in SSE 5.8 mph 5.8 mph 53 % 0 in
19:40 79.5 °F 61.3 °F 30 in ESE 6.2 mph 6.2 mph 54 % 0 in
19:45 79.5 °F 61.3 °F 30 in North 4.6 mph 4.6 mph 54 % 0 in
19:50 79.3 °F 61.2 °F 30 in ESE 5.8 mph 5.8 mph 54 % 0 in
19:55 79.2 °F 61.2 °F 30 in ENE 5.8 mph 5.8 mph 54 % 0 in
20:00 79.2 °F 61.2 °F 30 in NE 4.6 mph 4.6 mph 54 % 0 in
20:05 79 °F 61 °F 30 in NE 5.8 mph 5.8 mph 54 % 0 in
20:10 78.8 °F 61.3 °F 30 in East 7.1 mph 7.1 mph 55 % 0 in
20:15 78.6 °F 61.2 °F 30 in ENE 5.8 mph 5.8 mph 55 % 0 in
20:20 78.6 °F 61.2 °F 30 in ENE 4.6 mph 4.6 mph 55 % 0 in
20:25 78.3 °F 60.8 °F 30 in ESE 5.9 mph 5.9 mph 55 % 0 in
20:30 78.1 °F 61.2 °F 30 in ESE 4.6 mph 4.6 mph 56 % 0 in
20:35 78.1 °F 61.2 °F 30 in NE 5.8 mph 5.8 mph 56 % 0 in
20:40 77.7 °F 61.3 °F 30 in ESE 5.8 mph 5.8 mph 57 % 0 in
20:45 77.4 °F 61 °F 30 in East 4.9 mph 4.9 mph 57 % 0 in
20:50 77.2 °F 60.8 °F 30 in ENE 6.9 mph 6.9 mph 57 % 0 in
20:55 77 °F 60.6 °F 30 in East 5.8 mph 5.8 mph 57 % 0 in
21:00 76.8 °F 61 °F 30 in ESE 6.9 mph 6.9 mph 58 % 0 in
21:05 76.6 °F 60.8 °F 30 in ESE 5.9 mph 5.9 mph 58 % 0 in
21:10 76.5 °F 61.2 °F 30 in East 5.8 mph 5.8 mph 59 % 0 in
21:15 76.3 °F 61.3 °F 30 in NNE 4.6 mph 4.6 mph 60 % 0 in
21:20 76.1 °F 61.2 °F 30 in ESE 4 mph 4 mph 60 % 0 in
21:25 75.7 °F 61 °F 30 in ENE 3.5 mph 3.5 mph 60 % 0 in
21:30 75.7 °F 61.3 °F 30.1 in ESE 3.5 mph 3.5 mph 61 % 0 in
21:31 75.7 °F 61.3 °F 30.1 in SE 3.5 mph 3.5 mph 61 % 0 in
21:36 75.6 °F 61.2 °F 30.1 in ESE 5.6 mph 5.6 mph 61 % 0 in
21:41 75.6 °F 61.5 °F 30.1 in East 2.4 mph 2.4 mph 62 % 0 in
21:46 75.4 °F 61.5 °F 30.1 in NNE 3.5 mph 3.5 mph 62 % 0 in
21:51 75.4 °F 61.5 °F 30.1 in ENE 3.5 mph 3.5 mph 62 % 0 in
21:56 75.2 °F 60.8 °F 30.1 in East 3.5 mph 3.5 mph 61 % 0 in
22:01 75.2 °F 61.3 °F 30 in ESE 2.3 mph 2.3 mph 62 % 0 in
22:06 75.2 °F 60.8 °F 30 in ESE 3.5 mph 3.5 mph 61 % 0 in
22:11 75 °F 61.2 °F 30 in NE 2.3 mph 2.3 mph 62 % 0 in
22:16 74.8 °F 61.3 °F 30.1 in Calm     63 % 0 in
22:21 74.8 °F 61.3 °F 30.1 in East 2.3 mph 2.3 mph 63 % 0 in
22:26 74.7 °F 61.2 °F 30.1 in ESE 2.3 mph 2.3 mph 63 % 0 in
22:31 74.5 °F 61.2 °F 30.1 in ENE 1.2 mph 1.2 mph 63 % 0 in
22:32 74.5 °F 61.2 °F 30.1 in NE 2.3 mph 2.3 mph 63 % 0 in
22:37 74.5 °F 61.2 °F 30.1 in NNE 2.3 mph 2.3 mph 63 % 0 in
22:42 74.5 °F 60.6 °F 30.1 in NE 1.2 mph   62 % 0 in
22:47 74.3 °F 60.4 °F 30.1 in Calm     62 % 0 in
22:52 74.3 °F 60.4 °F 30.1 in NE 1.2 mph   62 % 0 in
22:57 74.3 °F 60.1 °F 30.1 in ENE 2.3 mph 2.3 mph 61 % 0 in
23:02 74.1 °F 59.7 °F 30.1 in Calm     61 % 0 in
23:07 73.9 °F 59.5 °F 30.1 in Calm     61 % 0 in
23:12 73.9 °F 59.5 °F 30.1 in Calm     61 % 0 in
23:17 73.8 °F 59 °F 30.1 in Calm     60 % 0 in
23:22 73.6 °F 58.8 °F 30.1 in NNW 1.2 mph   60 % 0 in
23:27 73.4 °F 58.6 °F 30.1 in Calm     60 % 0 in
23:32 73.4 °F 58.6 °F 30.1 in NNE 1.2 mph   60 % 0 in
23:37 73.4 °F 58.6 °F 30.1 in NNE 1.2 mph   60 % 0 in
23:42 73.2 °F 58.5 °F 30.1 in NW 1.2 mph   60 % 0 in
23:47 73.2 °F 58.5 °F 30.1 in West 1.2 mph 1.2 mph 60 % 0 in
23:52 73.2 °F 58.5 °F 30.1 in Calm     60 % 0 in
23:57 73 °F 58.3 °F 30.1 in NNW 1.2 mph   60 % 0 in
Meteo Sesrovires
Elogis d' Weather Underground - 3.5 mb

Guio original per  Jim McMurry - jmcmurry@mwt.net Adaptat per a la plantilla per  Wim van der Kuil - Leuven-Template.eu

Trobareu la nostra informacio del temps tambe a:

Weather Underground

AWEKAS